28. September 2022

Uhrzeit Code Wetter Temp. Sichtweite Wolkendecke Wind METAR/SPECI
15:00
V
24 °C 10 km+ - 150° 150° 10 kt METAR FIMP 281100Z 15010KT 9999 FEW018 SCT050 24/16 Q1019
14:00
V
24 °C 10 km+ - 130° 130° 11 kt METAR FIMP 281000Z 13011KT 9999 SCT018 SCT050 24/15 Q1020
13:00
V
24 °C 10 km+ 5.000 ft 120° 120° 10 kt METAR FIMP 280900Z 12010KT 9999 SCT018 BKN050 24/14 Q1021
12:00
V
25 °C 10 km+ 5.000 ft 140° 140° 8 kt METAR FIMP 280800Z 14008KT 9999 SCT017 BKN050 25/15 Q1021
11:00
V
24 °C 10 km+ 5.000 ft 140° 140° 9 kt METAR FIMP 280700Z 14009KT 9999 SCT017 BKN050 24/14 Q1022
10:00
V
24 °C 10 km+ 5.000 ft 120° 120° 10 kt METAR FIMP 280600Z 12010KT 9999 SCT017 BKN050 24/14 Q1022
09:00
V
23 °C 10 km+ 5.000 ft 120° 120° 7 kt METAR FIMP 280500Z 12007KT 9999 SCT017 BKN050 23/14 Q1022
08:00
V
23 °C 10 km+ 5.000 ft 120° 120° 8 kt METAR FIMP 280400Z 12008KT 9999 SCT017 BKN050 23/15 Q1021
07:00
V
22 °C 10 km+ 5.000 ft 110° 110° 10 kt METAR FIMP 280300Z 11010KT 9999 SCT017 BKN050 22/16 Q1021
06:00
V
22 °C 10 km+ 5.000 ft 100° 100° 10 kt METAR FIMP 280200Z 10010KT 9999 SCT017 BKN050 22/15 Q1021
05:00
V
21 °C 10 km+ 5.000 ft 110° 110° 6 kt METAR FIMP 280100Z 11006KT 9999 FEW017 BKN050 21/15 Q1020
03:00
V
21 °C 10 km+ - 100° 100° 10 kt METAR FIMP 272300Z 10010KT 9999 FEW017 SCT050 21/14 Q1021
02:00
V
22 °C 10 km+ - 120° 120° 10 kt METAR FIMP 272200Z 12010KT 9999 FEW017 SCT050 22/14 Q1021
01:00
M
22 °C 10 km+ 1.700 ft 110° 110° 10 kt METAR FIMP 272100Z 11010KT 9999 BKN017 BKN050 22/15 Q1022
00:00
V
22 °C 10 km+ 5.000 ft 120° 120° 9 kt METAR FIMP 272000Z 12009KT 9999 SCT017 BKN050 22/14 Q1022

27. September 2022

Uhrzeit Code Wetter Temp. Sichtweite Wolkendecke Wind METAR/SPECI
23:00
V
22 °C 10 km+ 5.000 ft 110° 110° 8 kt METAR FIMP 271900Z 11008KT 9999 SCT017 BKN050 22/13 Q1022
22:00
V
22 °C 10 km+ 5.000 ft 130° 130° 9 kt METAR FIMP 271800Z 13009KT 9999 SCT017 BKN050 22/14 Q1023
21:00
V
22 °C 10 km+ 5.000 ft 110° 110° 12 kt METAR FIMP 271700Z 11012KT 9999 SCT017 BKN050 22/16 Q1022
20:00
V
22 °C 10 km+ 5.000 ft 120° 120° 10 kt METAR FIMP 271600Z 12010KT 9999 SCT017 BKN050 22/16 Q1022
19:00
V
22 °C 10 km+ 5.000 ft 110° 110° 12 kt METAR FIMP 271500Z 11012KT 9999 VCSH SCT017 BKN050 22/17 Q1022
18:00
V
23 °C 10 km+ 5.000 ft 120° 120° 10 kt METAR FIMP 271400Z 12010KT 9999 FEW018 BKN050 23/16 Q1021
17:00
V
24 °C 10 km+ 5.000 ft 110° 110° 10 kt METAR FIMP 271300Z 11010KT 9999 SCT018 BKN050 24/16 Q1021
16:00
V
24 °C 10 km+ - 110° 110° 9 kt METAR FIMP 271200Z 11009KT 9999 SCT018 24/16 Q1021
15:00
V
25 °C 10 km+ - 120° 120° 10 kt METAR FIMP 271100Z 12010KT 9999 SCT018 25/17 Q1021
14:00
V
25 °C 10 km+ - 130° 130° 12 kt METAR FIMP 271000Z 13012KT 9999 FEW018 25/16 Q1021
13:00
V
25 °C 10 km+ - 110° 110° 11 kt METAR FIMP 270900Z 11011KT 9999 SCT018 25/16 Q1022
12:00
V
25 °C 10 km+ - 110° 110° 13 kt METAR FIMP 270800Z 11013KT 9999 SCT018 25/17 Q1023
11:00
V
24 °C 10 km+ - 090° 090° 13 kt METAR FIMP 270700Z 09013KT 9999 SCT018 24/17 Q1023
10:00
M
21 °C 8 km 1.600 ft 090° 090° 12 kt METAR FIMP 270600Z 09012KT 8000 VCSH BKN016 BKN050 21/18 Q1024
09:00
M
23 °C 10 km+ 1.600 ft 060° 060° 11 kt METAR FIMP 270500Z 06011KT 9999 VCSH BKN016 SCT050 23/17 Q1024
08:00
V
23 °C 10 km+ - 080° 080° 13 kt METAR FIMP 270400Z 08013KT 9999 FEW017 SCT050 23/15 Q1024
07:00
V
21 °C 10 km+ - 080° 080° 15 kt METAR FIMP 270300Z 08015KT 9999 FEW017 SCT050 21/16 Q1024
06:00
V
21 °C 10 km+ - 090° 090° 14 kt METAR FIMP 270200Z 09014KT 9999 FEW017 21/15 Q1023
05:00
V
21 °C 10 km+ - 110° 110° 10 kt METAR FIMP 270100Z 11010KT 9999 SCT017 21/15 Q1023
04:00
M
21 °C 10 km+ 1.700 ft 100° 100° 10 kt METAR FIMP 270000Z 10010KT 9999 BKN017 21/15 Q1023
03:00
M
22 °C 10 km+ 1.700 ft 110° 110° 15 kt METAR FIMP 262300Z 11015KT 9999 BKN017 22/16 Q1023
02:00
V
22 °C 10 km+ - 110° 110° 10 kt METAR FIMP 262200Z 11010KT 9999 SCT018 22/15 Q1023
01:00
V
22 °C 10 km+ - 100° 100° 10 kt METAR FIMP 262100Z 10010KT 9999 SCT018 22/15 Q1024
00:00
M
22 °C 10 km+ 1.700 ft 100° 100° 11 kt METAR FIMP 262000Z 10011KT 9999 BKN017 22/15 Q1024

26. September 2022

Uhrzeit Code Wetter Temp. Sichtweite Wolkendecke Wind METAR/SPECI
23:00
M
22 °C 10 km+ 1.700 ft 090° 090° 11 kt METAR FIMP 261900Z 09011KT 9999 BKN017 22/14 Q1024
22:00
V
22 °C 10 km+ - 080° 080° 14 kt METAR FIMP 261800Z 08014KT 9999 SCT017 22/15 Q1024
21:00
V
22 °C 10 km+ - 100° 100° 14 kt METAR FIMP 261700Z 10014KT 9999 FEW018 22/15 Q1024
20:00
M
22 °C 10 km+ 1.700 ft 120° 120° 13 kt METAR FIMP 261600Z 12013KT 9999 BKN017 22/17 Q1023
19:00
V
22 °C 10 km+ - 090° 090° 12 kt METAR FIMP 261500Z 09012KT 9999 SCT017 22/16 Q1023
18:00
V
22 °C 10 km+ - 100° 100° 14 kt METAR FIMP 261400Z 10014KT 9999 SCT018 22/17 Q1022
17:00
V
24 °C 10 km+ - 110° 110° 13 kt METAR FIMP 261300Z 11013KT 9999 SCT018 24/17 Q1022
16:00
V
24 °C 10 km+ - 120° 120° 13 kt METAR FIMP 261200Z 12013KT 9999 FEW020 24/15 Q1022
Ältere Daten

Wir und Dritte verfolgen dein Internetverhalten auf unserer Website mit Cookies. Wenn du fortfährst, gehen wir davon aus, dass du mit unserer Cookie-Richtlinie einverstanden bist. Mehr erfahren